sensor_id;sensor_type;location;lat;lon;timestamp;temperature;humidity
3548;DHT22;1788;49.400;11.092;2022-07-18T00:01:47;19.40;34.10
3548;DHT22;1788;49.400;11.092;2022-07-18T00:04:14;19.30;34.20
3548;DHT22;1788;49.400;11.092;2022-07-18T00:06:41;19.30;34.50
3548;DHT22;1788;49.400;11.092;2022-07-18T00:09:08;19.20;34.40
3548;DHT22;1788;49.400;11.092;2022-07-18T00:11:35;19.20;34.60
3548;DHT22;1788;49.400;11.092;2022-07-18T00:14:02;19.10;34.60
3548;DHT22;1788;49.400;11.092;2022-07-18T00:16:28;19.10;34.70
3548;DHT22;1788;49.400;11.092;2022-07-18T00:18:55;19.10;34.80
3548;DHT22;1788;49.400;11.092;2022-07-18T00:21:21;19.00;34.90
3548;DHT22;1788;49.400;11.092;2022-07-18T00:23:49;18.90;35.00
3548;DHT22;1788;49.400;11.092;2022-07-18T00:26:16;18.90;35.00
3548;DHT22;1788;49.400;11.092;2022-07-18T00:28:43;18.90;35.40
3548;DHT22;1788;49.400;11.092;2022-07-18T00:31:09;18.80;35.10
3548;DHT22;1788;49.400;11.092;2022-07-18T00:33:36;18.80;35.20
3548;DHT22;1788;49.400;11.092;2022-07-18T00:36:03;18.80;35.40
3548;DHT22;1788;49.400;11.092;2022-07-18T00:38:29;18.70;35.40
3548;DHT22;1788;49.400;11.092;2022-07-18T00:40:57;18.60;35.60
3548;DHT22;1788;49.400;11.092;2022-07-18T00:43:23;18.60;35.60
3548;DHT22;1788;49.400;11.092;2022-07-18T00:45:51;18.50;35.90
3548;DHT22;1788;49.400;11.092;2022-07-18T00:48:17;18.50;35.80
3548;DHT22;1788;49.400;11.092;2022-07-18T00:50:44;18.50;35.90
3548;DHT22;1788;49.400;11.092;2022-07-18T00:53:10;18.40;36.40
3548;DHT22;1788;49.400;11.092;2022-07-18T00:55:38;18.40;36.10
3548;DHT22;1788;49.400;11.092;2022-07-18T00:58:04;18.30;36.20
3548;DHT22;1788;49.400;11.092;2022-07-18T01:00:30;18.30;36.30
3548;DHT22;1788;49.400;11.092;2022-07-18T01:02:57;18.20;36.40
3548;DHT22;1788;49.400;11.092;2022-07-18T01:05:23;18.20;36.50
3548;DHT22;1788;49.400;11.092;2022-07-18T01:07:51;18.20;36.60
3548;DHT22;1788;49.400;11.092;2022-07-18T01:10:18;18.20;36.60
3548;DHT22;1788;49.400;11.092;2022-07-18T01:12:45;18.10;36.70
3548;DHT22;1788;49.400;11.092;2022-07-18T01:15:12;18.10;36.70
3548;DHT22;1788;49.400;11.092;2022-07-18T01:17:38;18.10;36.80
3548;DHT22;1788;49.400;11.092;2022-07-18T01:20:05;18.10;37.00
3548;DHT22;1788;49.400;11.092;2022-07-18T01:22:31;18.10;37.10
3548;DHT22;1788;49.400;11.092;2022-07-18T01:24:59;18.00;37.30
3548;DHT22;1788;49.400;11.092;2022-07-18T01:27:25;18.00;37.30
3548;DHT22;1788;49.400;11.092;2022-07-18T01:29:53;17.90;37.90
3548;DHT22;1788;49.400;11.092;2022-07-18T01:32:19;17.90;37.50
3548;DHT22;1788;49.400;11.092;2022-07-18T01:34:46;17.80;37.50
3548;DHT22;1788;49.400;11.092;2022-07-18T01:37:13;17.80;37.70
3548;DHT22;1788;49.400;11.092;2022-07-18T01:44:39;17.60;38.00
3548;DHT22;1788;49.400;11.092;2022-07-18T01:47:07;17.60;37.80
3548;DHT22;1788;49.400;11.092;2022-07-18T01:49:33;17.50;38.00
3548;DHT22;1788;49.400;11.092;2022-07-18T01:52:00;17.50;38.10
3548;DHT22;1788;49.400;11.092;2022-07-18T01:54:27;17.50;38.20
3548;DHT22;1788;49.400;11.092;2022-07-18T01:56:53;17.40;38.30
3548;DHT22;1788;49.400;11.092;2022-07-18T01:59:21;17.30;38.50
3548;DHT22;1788;49.400;11.092;2022-07-18T02:01:47;17.30;38.50
3548;DHT22;1788;49.400;11.092;2022-07-18T02:04:15;17.30;38.70
3548;DHT22;1788;49.400;11.092;2022-07-18T02:06:42;17.30;38.70
3548;DHT22;1788;49.400;11.092;2022-07-18T02:09:09;17.20;38.90
3548;DHT22;1788;49.400;11.092;2022-07-18T02:11:36;17.20;38.90
3548;DHT22;1788;49.400;11.092;2022-07-18T02:14:03;17.20;38.90
3548;DHT22;1788;49.400;11.092;2022-07-18T02:16:29;17.10;38.90
3548;DHT22;1788;49.400;11.092;2022-07-18T02:18:56;17.10;39.00
3548;DHT22;1788;49.400;11.092;2022-07-18T02:21:23;17.00;39.10
3548;DHT22;1788;49.400;11.092;2022-07-18T02:23:49;17.00;39.10
3548;DHT22;1788;49.400;11.092;2022-07-18T02:26:16;17.00;39.30
3548;DHT22;1788;49.400;11.092;2022-07-18T02:28:42;16.90;39.30
3548;DHT22;1788;49.400;11.092;2022-07-18T02:31:09;16.80;39.30
3548;DHT22;1788;49.400;11.092;2022-07-18T02:33:36;16.80;39.40
3548;DHT22;1788;49.400;11.092;2022-07-18T02:36:03;16.70;39.60
3548;DHT22;1788;49.400;11.092;2022-07-18T02:38:30;16.70;39.60
3548;DHT22;1788;49.400;11.092;2022-07-18T02:40:57;16.60;39.90
3548;DHT22;1788;49.400;11.092;2022-07-18T02:45:52;16.60;40.00
3548;DHT22;1788;49.400;11.092;2022-07-18T02:48:19;16.50;40.00
3548;DHT22;1788;49.400;11.092;2022-07-18T02:50:45;16.50;40.10
3548;DHT22;1788;49.400;11.092;2022-07-18T02:53:13;16.40;40.20
3548;DHT22;1788;49.400;11.092;2022-07-18T02:55:39;16.40;40.20
3548;DHT22;1788;49.400;11.092;2022-07-18T02:58:07;16.30;40.40
3548;DHT22;1788;49.400;11.092;2022-07-18T03:00:33;16.30;40.30
3548;DHT22;1788;49.400;11.092;2022-07-18T03:03:01;16.20;40.30
3548;DHT22;1788;49.400;11.092;2022-07-18T03:05:27;16.20;40.60
3548;DHT22;1788;49.400;11.092;2022-07-18T03:07:54;16.20;40.70
3548;DHT22;1788;49.400;11.092;2022-07-18T03:10:21;16.10;40.80
3548;DHT22;1788;49.400;11.092;2022-07-18T03:12:48;16.10;40.90
3548;DHT22;1788;49.400;11.092;2022-07-18T03:15:14;16.10;41.00
3548;DHT22;1788;49.400;11.092;2022-07-18T03:17:41;16.00;41.00
3548;DHT22;1788;49.400;11.092;2022-07-18T03:20:08;16.00;41.20
3548;DHT22;1788;49.400;11.092;2022-07-18T03:22:35;16.00;41.20
3548;DHT22;1788;49.400;11.092;2022-07-18T03:25:02;16.00;41.20
3548;DHT22;1788;49.400;11.092;2022-07-18T03:27:28;15.90;41.20
3548;DHT22;1788;49.400;11.092;2022-07-18T03:29:55;15.90;41.20
3548;DHT22;1788;49.400;11.092;2022-07-18T03:32:21;15.90;41.30
3548;DHT22;1788;49.400;11.092;2022-07-18T03:34:48;15.90;41.30
3548;DHT22;1788;49.400;11.092;2022-07-18T03:37:15;15.80;41.30
3548;DHT22;1788;49.400;11.092;2022-07-18T03:39:41;15.80;41.40
3548;DHT22;1788;49.400;11.092;2022-07-18T03:42:09;15.70;41.50
3548;DHT22;1788;49.400;11.092;2022-07-18T03:44:35;15.70;41.50
3548;DHT22;1788;49.400;11.092;2022-07-18T03:47:03;15.70;41.80
3548;DHT22;1788;49.400;11.092;2022-07-18T03:49:30;15.70;41.80
3548;DHT22;1788;49.400;11.092;2022-07-18T03:51:57;15.70;41.80
3548;DHT22;1788;49.400;11.092;2022-07-18T03:54:23;15.60;41.90
3548;DHT22;1788;49.400;11.092;2022-07-18T03:56:50;15.60;41.90
3548;DHT22;1788;49.400;11.092;2022-07-18T03:59:17;15.60;42.10
3548;DHT22;1788;49.400;11.092;2022-07-18T04:01:44;15.60;42.20
3548;DHT22;1788;49.400;11.092;2022-07-18T04:04:11;15.60;42.20
3548;DHT22;1788;49.400;11.092;2022-07-18T04:06:38;15.60;42.30
3548;DHT22;1788;49.400;11.092;2022-07-18T04:09:05;15.60;42.30
3548;DHT22;1788;49.400;11.092;2022-07-18T04:11:32;15.60;42.50
3548;DHT22;1788;49.400;11.092;2022-07-18T04:13:59;15.60;42.50
3548;DHT22;1788;49.400;11.092;2022-07-18T04:16:26;15.60;42.50
3548;DHT22;1788;49.400;11.092;2022-07-18T04:18:52;15.60;42.60
3548;DHT22;1788;49.400;11.092;2022-07-18T04:21:19;15.60;42.70
3548;DHT22;1788;49.400;11.092;2022-07-18T04:23:46;15.60;42.80
3548;DHT22;1788;49.400;11.092;2022-07-18T04:26:12;15.60;42.90
3548;DHT22;1788;49.400;11.092;2022-07-18T04:28:39;15.60;42.90
3548;DHT22;1788;49.400;11.092;2022-07-18T04:31:05;15.70;43.00
3548;DHT22;1788;49.400;11.092;2022-07-18T04:33:33;15.70;43.10
3548;DHT22;1788;49.400;11.092;2022-07-18T04:35:59;15.70;43.10
3548;DHT22;1788;49.400;11.092;2022-07-18T04:38:27;15.80;43.80
3548;DHT22;1788;49.400;11.092;2022-07-18T04:40:53;15.70;43.20
3548;DHT22;1788;49.400;11.092;2022-07-18T04:43:20;15.80;43.30
3548;DHT22;1788;49.400;11.092;2022-07-18T04:45:47;15.80;43.40
3548;DHT22;1788;49.400;11.092;2022-07-18T04:48:13;15.90;43.50
3548;DHT22;1788;49.400;11.092;2022-07-18T04:50:41;16.00;43.70
3548;DHT22;1788;49.400;11.092;2022-07-18T04:53:07;16.00;43.60
3548;DHT22;1788;49.400;11.092;2022-07-18T04:55:34;16.00;43.60
3548;DHT22;1788;49.400;11.092;2022-07-18T04:58:00;16.10;44.30
3548;DHT22;1788;49.400;11.092;2022-07-18T05:00:27;16.20;43.90
3548;DHT22;1788;49.400;11.092;2022-07-18T05:02:54;16.30;44.00
3548;DHT22;1788;49.400;11.092;2022-07-18T05:05:20;16.30;43.80
3548;DHT22;1788;49.400;11.092;2022-07-18T05:07:48;16.40;44.30
3548;DHT22;1788;49.400;11.092;2022-07-18T05:10:14;16.60;43.70
3548;DHT22;1788;49.400;11.092;2022-07-18T05:12:42;16.80;43.60
3548;DHT22;1788;49.400;11.092;2022-07-18T05:15:08;16.70;43.50
3548;DHT22;1788;49.400;11.092;2022-07-18T05:17:35;16.90;43.40
3548;DHT22;1788;49.400;11.092;2022-07-18T05:20:02;16.90;43.40
3548;DHT22;1788;49.400;11.092;2022-07-18T05:22:28;17.00;43.40
3548;DHT22;1788;49.400;11.092;2022-07-18T05:24:55;17.10;43.30
3548;DHT22;1788;49.400;11.092;2022-07-18T05:27:21;17.20;43.20
3548;DHT22;1788;49.400;11.092;2022-07-18T05:29:48;17.30;43.20
3548;DHT22;1788;49.400;11.092;2022-07-18T05:32:15;17.40;43.10
3548;DHT22;1788;49.400;11.092;2022-07-18T05:34:41;17.40;43.50
3548;DHT22;1788;49.400;11.092;2022-07-18T05:37:08;17.60;42.90
3548;DHT22;1788;49.400;11.092;2022-07-18T05:39:35;17.70;42.80
3548;DHT22;1788;49.400;11.092;2022-07-18T05:42:02;17.80;42.70
3548;DHT22;1788;49.400;11.092;2022-07-18T05:44:28;17.90;42.60
3548;DHT22;1788;49.400;11.092;2022-07-18T05:46:54;18.00;42.50
3548;DHT22;1788;49.400;11.092;2022-07-18T05:49:21;18.10;42.50
3548;DHT22;1788;49.400;11.092;2022-07-18T05:51:53;18.20;42.30
3548;DHT22;1788;49.400;11.092;2022-07-18T05:54:20;18.40;42.30
3548;DHT22;1788;49.400;11.092;2022-07-18T05:56:47;18.50;42.10
3548;DHT22;1788;49.400;11.092;2022-07-18T05:59:15;18.80;41.90
3548;DHT22;1788;49.400;11.092;2022-07-18T06:01:42;18.80;41.90
3548;DHT22;1788;49.400;11.092;2022-07-18T06:04:09;19.00;41.70
3548;DHT22;1788;49.400;11.092;2022-07-18T06:06:35;19.10;41.50
3548;DHT22;1788;49.400;11.092;2022-07-18T06:09:03;19.40;41.20
3548;DHT22;1788;49.400;11.092;2022-07-18T06:11:29;19.40;41.20
3548;DHT22;1788;49.400;11.092;2022-07-18T06:13:57;19.80;41.00
3548;DHT22;1788;49.400;11.092;2022-07-18T06:16:23;19.80;41.00
3548;DHT22;1788;49.400;11.092;2022-07-18T06:18:50;20.00;40.90
3548;DHT22;1788;49.400;11.092;2022-07-18T06:21:17;20.20;40.80
3548;DHT22;1788;49.400;11.092;2022-07-18T06:23:43;20.40;40.70
3548;DHT22;1788;49.400;11.092;2022-07-18T06:26:10;20.50;40.40
3548;DHT22;1788;49.400;11.092;2022-07-18T06:28:37;20.70;40.30
3548;DHT22;1788;49.400;11.092;2022-07-18T06:31:03;20.90;40.10
3548;DHT22;1788;49.400;11.092;2022-07-18T06:33:30;21.10;40.00
3548;DHT22;1788;49.400;11.092;2022-07-18T06:35:57;21.30;39.90
3548;DHT22;1788;49.400;11.092;2022-07-18T06:38:23;21.40;39.60
3548;DHT22;1788;49.400;11.092;2022-07-18T06:40:51;21.60;39.50
3548;DHT22;1788;49.400;11.092;2022-07-18T06:43:17;21.70;39.30
3548;DHT22;1788;49.400;11.092;2022-07-18T06:45:44;21.70;39.10
3548;DHT22;1788;49.400;11.092;2022-07-18T06:48:10;21.90;39.10
3548;DHT22;1788;49.400;11.092;2022-07-18T06:50:37;22.00;38.90
3548;DHT22;1788;49.400;11.092;2022-07-18T06:53:04;22.20;38.80
3548;DHT22;1788;49.400;11.092;2022-07-18T06:55:30;22.40;38.70
3548;DHT22;1788;49.400;11.092;2022-07-18T06:57:57;22.50;38.50
3548;DHT22;1788;49.400;11.092;2022-07-18T07:00:24;22.70;38.30
3548;DHT22;1788;49.400;11.092;2022-07-18T07:02:50;22.90;38.20
3548;DHT22;1788;49.400;11.092;2022-07-18T07:05:18;23.20;37.80
3548;DHT22;1788;49.400;11.092;2022-07-18T07:07:44;23.20;37.80
3548;DHT22;1788;49.400;11.092;2022-07-18T07:10:11;23.40;37.70
3548;DHT22;1788;49.400;11.092;2022-07-18T07:15:04;23.70;37.30
3548;DHT22;1788;49.400;11.092;2022-07-18T07:17:31;23.80;37.00
3548;DHT22;1788;49.400;11.092;2022-07-18T07:19:57;23.90;36.80
3548;DHT22;1788;49.400;11.092;2022-07-18T07:22:24;24.00;36.60
3548;DHT22;1788;49.400;11.092;2022-07-18T07:24:50;24.10;36.30
3548;DHT22;1788;49.400;11.092;2022-07-18T07:27:18;24.40;35.90
3548;DHT22;1788;49.400;11.092;2022-07-18T07:29:44;24.40;35.90
3548;DHT22;1788;49.400;11.092;2022-07-18T07:32:12;24.60;35.40
3548;DHT22;1788;49.400;11.092;2022-07-18T07:34:38;24.60;35.30
3548;DHT22;1788;49.400;11.092;2022-07-18T07:37:06;24.80;35.20
3548;DHT22;1788;49.400;11.092;2022-07-18T07:39:32;24.80;35.10
3548;DHT22;1788;49.400;11.092;2022-07-18T07:41:59;24.90;35.00
3548;DHT22;1788;49.400;11.092;2022-07-18T07:44:26;24.90;34.90
3548;DHT22;1788;49.400;11.092;2022-07-18T07:46:53;24.90;34.80
3548;DHT22;1788;49.400;11.092;2022-07-18T07:54:17;25.50;34.60
3548;DHT22;1788;49.400;11.092;2022-07-18T07:56:46;25.90;34.20
3548;DHT22;1788;49.400;11.092;2022-07-18T07:59:17;26.10;33.90
3548;DHT22;1788;49.400;11.092;2022-07-18T08:01:47;26.00;33.80
3548;DHT22;1788;49.400;11.092;2022-07-18T08:04:13;26.20;33.50
3548;DHT22;1788;49.400;11.092;2022-07-18T08:06:41;26.40;33.20
3548;DHT22;1788;49.400;11.092;2022-07-18T08:09:10;26.60;33.00
3548;DHT22;1788;49.400;11.092;2022-07-18T08:14:12;27.00;32.00
3548;DHT22;1788;49.400;11.092;2022-07-18T08:16:39;27.00;32.20
3548;DHT22;1788;49.400;11.092;2022-07-18T08:19:05;27.20;32.00
3548;DHT22;1788;49.400;11.092;2022-07-18T08:21:33;27.40;31.70
3548;DHT22;1788;49.400;11.092;2022-07-18T08:24:00;27.50;31.50
3548;DHT22;1788;49.400;11.092;2022-07-18T08:26:29;27.60;31.10
3548;DHT22;1788;49.400;11.092;2022-07-18T08:28:58;27.80;30.70
3548;DHT22;1788;49.400;11.092;2022-07-18T08:31:27;28.00;30.40
3548;DHT22;1788;49.400;11.092;2022-07-18T08:33:54;27.90;30.30
3548;DHT22;1788;49.400;11.092;2022-07-18T08:36:22;28.00;30.00
3548;DHT22;1788;49.400;11.092;2022-07-18T08:41:24;28.10;29.80
3548;DHT22;1788;49.400;11.092;2022-07-18T08:51:19;28.40;29.30
3548;DHT22;1788;49.400;11.092;2022-07-18T08:53:46;28.60;29.10
3548;DHT22;1788;49.400;11.092;2022-07-18T08:56:13;28.60;28.80
3548;DHT22;1788;49.400;11.092;2022-07-18T08:58:40;28.70;28.40
3548;DHT22;1788;49.400;11.092;2022-07-18T09:01:07;28.60;28.40
3548;DHT22;1788;49.400;11.092;2022-07-18T09:03:34;28.80;27.80
3548;DHT22;1788;49.400;11.092;2022-07-18T09:08:27;28.90;27.60
3548;DHT22;1788;49.400;11.092;2022-07-18T09:10:55;28.90;27.50
3548;DHT22;1788;49.400;11.092;2022-07-18T09:18:14;29.50;27.10
3548;DHT22;1788;49.400;11.092;2022-07-18T09:20:40;29.60;26.80
3548;DHT22;1788;49.400;11.092;2022-07-18T09:23:12;29.70;26.50
3548;DHT22;1788;49.400;11.092;2022-07-18T09:25:34;29.90;26.20
3548;DHT22;1788;49.400;11.092;2022-07-18T09:28:01;29.90;26.20
3548;DHT22;1788;49.400;11.092;2022-07-18T09:35:23;30.30;25.70
3548;DHT22;1788;49.400;11.092;2022-07-18T09:40:16;30.60;25.30
3548;DHT22;1788;49.400;11.092;2022-07-18T09:42:42;30.90;25.10
3548;DHT22;1788;49.400;11.092;2022-07-18T09:45:09;30.90;25.10
3548;DHT22;1788;49.400;11.092;2022-07-18T09:52:29;31.20;24.50
3548;DHT22;1788;49.400;11.092;2022-07-18T09:55:03;31.30;24.40
3548;DHT22;1788;49.400;11.092;2022-07-18T09:57:23;31.40;24.30
3548;DHT22;1788;49.400;11.092;2022-07-18T09:59:50;31.60;24.20
3548;DHT22;1788;49.400;11.092;2022-07-18T10:02:16;31.60;23.90
3548;DHT22;1788;49.400;11.092;2022-07-18T10:04:43;31.70;23.70
3548;DHT22;1788;49.400;11.092;2022-07-18T10:07:09;31.70;23.60
3548;DHT22;1788;49.400;11.092;2022-07-18T10:09:37;31.80;23.50
3548;DHT22;1788;49.400;11.092;2022-07-18T10:12:03;31.90;23.40
3548;DHT22;1788;49.400;11.092;2022-07-18T10:14:30;31.90;23.30
3548;DHT22;1788;49.400;11.092;2022-07-18T10:21:51;32.00;22.70
3548;DHT22;1788;49.400;11.092;2022-07-18T10:24:18;32.00;22.70
3548;DHT22;1788;49.400;11.092;2022-07-18T10:29:15;31.80;22.50
3548;DHT22;1788;49.400;11.092;2022-07-18T10:31:58;31.80;22.50
3548;DHT22;1788;49.400;11.092;2022-07-18T10:34:10;31.90;22.60
3548;DHT22;1788;49.400;11.092;2022-07-18T10:41:27;32.30;22.50
3548;DHT22;1788;49.400;11.092;2022-07-18T10:43:54;32.40;22.50
3548;DHT22;1788;49.400;11.092;2022-07-18T10:46:20;32.50;22.50
3548;DHT22;1788;49.400;11.092;2022-07-18T10:48:47;32.70;22.40
3548;DHT22;1788;49.400;11.092;2022-07-18T10:51:15;32.90;22.40
3548;DHT22;1788;49.400;11.092;2022-07-18T10:56:08;33.30;22.30
3548;DHT22;1788;49.400;11.092;2022-07-18T10:58:37;33.20;22.20
3548;DHT22;1788;49.400;11.092;2022-07-18T11:01:02;33.40;22.20
3548;DHT22;1788;49.400;11.092;2022-07-18T11:03:29;33.60;22.00
3548;DHT22;1788;49.400;11.092;2022-07-18T11:05:56;33.60;22.00
3548;DHT22;1788;49.400;11.092;2022-07-18T11:18:09;33.50;21.80
3548;DHT22;1788;49.400;11.092;2022-07-18T11:20:37;33.70;21.60
3548;DHT22;1788;49.400;11.092;2022-07-18T11:23:04;33.70;21.60
3548;DHT22;1788;49.400;11.092;2022-07-18T11:25:30;33.70;21.60
3548;DHT22;1788;49.400;11.092;2022-07-18T11:27:56;33.80;21.50
3548;DHT22;1788;49.400;11.092;2022-07-18T11:30:25;33.90;21.50
3548;DHT22;1788;49.400;11.092;2022-07-18T11:32:50;34.00;21.40
3548;DHT22;1788;49.400;11.092;2022-07-18T11:40:09;34.20;21.20
3548;DHT22;1788;49.400;11.092;2022-07-18T11:42:38;34.20;21.00
3548;DHT22;1788;49.400;11.092;2022-07-18T11:45:05;34.30;21.00
3548;DHT22;1788;49.400;11.092;2022-07-18T11:47:37;34.00;20.80
3548;DHT22;1788;49.400;11.092;2022-07-18T11:49:59;34.00;20.70
3548;DHT22;1788;49.400;11.092;2022-07-18T11:52:26;33.90;20.80
3548;DHT22;1788;49.400;11.092;2022-07-18T11:54:52;33.90;20.80
3548;DHT22;1788;49.400;11.092;2022-07-18T11:59:45;34.10;20.90
3548;DHT22;1788;49.400;11.092;2022-07-18T12:02:12;34.20;20.90
3548;DHT22;1788;49.400;11.092;2022-07-18T12:04:39;34.40;20.90
3548;DHT22;1788;49.400;11.092;2022-07-18T12:09:32;34.70;20.80
3548;DHT22;1788;49.400;11.092;2022-07-18T12:12:06;34.80;20.70
3548;DHT22;1788;49.400;11.092;2022-07-18T12:14:25;35.00;20.70
3548;DHT22;1788;49.400;11.092;2022-07-18T12:19:20;35.30;20.50
3548;DHT22;1788;49.400;11.092;2022-07-18T12:26:38;35.60;20.30
3548;DHT22;1788;49.400;11.092;2022-07-18T12:29:06;35.70;20.20
3548;DHT22;1788;49.400;11.092;2022-07-18T12:36:25;35.90;19.90
3548;DHT22;1788;49.400;11.092;2022-07-18T12:41:27;35.80;19.60
3548;DHT22;1788;49.400;11.092;2022-07-18T12:43:45;35.80;19.70
3548;DHT22;1788;49.400;11.092;2022-07-18T12:46:13;36.00;19.70
3548;DHT22;1788;49.400;11.092;2022-07-18T12:48:39;36.00;19.70
3548;DHT22;1788;49.400;11.092;2022-07-18T12:51:07;36.10;19.60
3548;DHT22;1788;49.400;11.092;2022-07-18T12:53:34;36.20;19.50
3548;DHT22;1788;49.400;11.092;2022-07-18T12:56:00;36.10;19.40
3548;DHT22;1788;49.400;11.092;2022-07-18T12:58:26;36.10;19.30
3548;DHT22;1788;49.400;11.092;2022-07-18T13:00:53;36.10;19.40
3548;DHT22;1788;49.400;11.092;2022-07-18T13:03:19;36.20;19.30
3548;DHT22;1788;49.400;11.092;2022-07-18T13:05:46;36.40;19.30
3548;DHT22;1788;49.400;11.092;2022-07-18T13:08:13;36.50;19.20
3548;DHT22;1788;49.400;11.092;2022-07-18T13:10:40;36.70;19.20
3548;DHT22;1788;49.400;11.092;2022-07-18T13:13:07;36.80;19.00
3548;DHT22;1788;49.400;11.092;2022-07-18T13:20:27;36.60;18.70
3548;DHT22;1788;49.400;11.092;2022-07-18T13:22:54;36.50;18.70
3548;DHT22;1788;49.400;11.092;2022-07-18T13:25:21;36.50;18.80
3548;DHT22;1788;49.400;11.092;2022-07-18T13:27:47;36.70;18.90
3548;DHT22;1788;49.400;11.092;2022-07-18T13:30:14;36.90;18.70
3548;DHT22;1788;49.400;11.092;2022-07-18T13:32:40;37.10;18.60
3548;DHT22;1788;49.400;11.092;2022-07-18T13:35:07;37.10;18.60
3548;DHT22;1788;49.400;11.092;2022-07-18T13:37:34;37.20;18.60
3548;DHT22;1788;49.400;11.092;2022-07-18T13:40:00;37.30;18.70
3548;DHT22;1788;49.400;11.092;2022-07-18T13:42:28;37.30;18.70
3548;DHT22;1788;49.400;11.092;2022-07-18T13:44:54;37.30;18.70
3548;DHT22;1788;49.400;11.092;2022-07-18T13:47:21;37.20;18.80
3548;DHT22;1788;49.400;11.092;2022-07-18T13:49:48;37.10;18.80
3548;DHT22;1788;49.400;11.092;2022-07-18T13:52:14;37.00;18.80
3548;DHT22;1788;49.400;11.092;2022-07-18T13:54:41;36.90;18.90
3548;DHT22;1788;49.400;11.092;2022-07-18T13:57:08;36.90;18.90
3548;DHT22;1788;49.400;11.092;2022-07-18T13:59:34;36.80;18.90
3548;DHT22;1788;49.400;11.092;2022-07-18T14:02:01;36.80;19.00
3548;DHT22;1788;49.400;11.092;2022-07-18T14:04:28;36.70;18.90
3548;DHT22;1788;49.400;11.092;2022-07-18T14:06:55;36.70;18.90
3548;DHT22;1788;49.400;11.092;2022-07-18T14:09:21;36.60;18.90
3548;DHT22;1788;49.400;11.092;2022-07-18T14:11:48;36.60;18.90
3548;DHT22;1788;49.400;11.092;2022-07-18T14:16:43;36.50;18.80
3548;DHT22;1788;49.400;11.092;2022-07-18T14:19:09;36.50;18.90
3548;DHT22;1788;49.400;11.092;2022-07-18T14:21:37;36.40;18.90
3548;DHT22;1788;49.400;11.092;2022-07-18T14:24:03;36.40;18.90
3548;DHT22;1788;49.400;11.092;2022-07-18T14:26:30;36.40;18.90
3548;DHT22;1788;49.400;11.092;2022-07-18T14:28:56;36.40;18.80
3548;DHT22;1788;49.400;11.092;2022-07-18T14:31:23;36.20;18.60
3548;DHT22;1788;49.400;11.092;2022-07-18T14:33:50;36.10;18.80
3548;DHT22;1788;49.400;11.092;2022-07-18T14:36:16;36.00;18.70
3548;DHT22;1788;49.400;11.092;2022-07-18T14:38:43;35.90;18.70
3548;DHT22;1788;49.400;11.092;2022-07-18T14:41:10;35.70;18.60
3548;DHT22;1788;49.400;11.092;2022-07-18T14:43:36;35.60;18.60
3548;DHT22;1788;49.400;11.092;2022-07-18T14:46:04;35.50;18.70
3548;DHT22;1788;49.400;11.092;2022-07-18T14:48:30;35.50;18.70
3548;DHT22;1788;49.400;11.092;2022-07-18T14:50:57;35.50;18.70
3548;DHT22;1788;49.400;11.092;2022-07-18T14:53:24;35.60;18.80
3548;DHT22;1788;49.400;11.092;2022-07-18T14:55:50;35.50;18.80
3548;DHT22;1788;49.400;11.092;2022-07-18T14:58:17;35.60;18.90
3548;DHT22;1788;49.400;11.092;2022-07-18T15:00:44;35.50;18.80
3548;DHT22;1788;49.400;11.092;2022-07-18T15:03:10;35.60;18.90
3548;DHT22;1788;49.400;11.092;2022-07-18T15:05:37;35.60;18.90
3548;DHT22;1788;49.400;11.092;2022-07-18T15:08:03;35.60;18.80
3548;DHT22;1788;49.400;11.092;2022-07-18T15:10:30;35.70;18.80
3548;DHT22;1788;49.400;11.092;2022-07-18T15:12:57;35.80;18.80
3548;DHT22;1788;49.400;11.092;2022-07-18T15:15:23;35.80;18.80
3548;DHT22;1788;49.400;11.092;2022-07-18T15:17:51;35.80;18.90
3548;DHT22;1788;49.400;11.092;2022-07-18T15:20:17;35.80;18.90
3548;DHT22;1788;49.400;11.092;2022-07-18T15:22:44;35.80;18.90
3548;DHT22;1788;49.400;11.092;2022-07-18T15:25:11;35.80;18.90
3548;DHT22;1788;49.400;11.092;2022-07-18T15:27:37;35.80;19.00
3548;DHT22;1788;49.400;11.092;2022-07-18T15:30:04;35.80;19.00
3548;DHT22;1788;49.400;11.092;2022-07-18T15:32:31;35.90;19.00
3548;DHT22;1788;49.400;11.092;2022-07-18T15:34:57;35.90;19.10
3548;DHT22;1788;49.400;11.092;2022-07-18T15:37:24;35.90;19.10
3548;DHT22;1788;49.400;11.092;2022-07-18T15:39:51;35.90;19.10
3548;DHT22;1788;49.400;11.092;2022-07-18T15:42:18;35.90;19.10
3548;DHT22;1788;49.400;11.092;2022-07-18T15:44:46;35.60;19.00
3548;DHT22;1788;49.400;11.092;2022-07-18T15:47:12;35.60;19.00
3548;DHT22;1788;49.400;11.092;2022-07-18T15:49:39;35.50;19.00
3548;DHT22;1788;49.400;11.092;2022-07-18T15:52:06;35.40;19.10
3548;DHT22;1788;49.400;11.092;2022-07-18T15:54:33;35.40;19.20
3548;DHT22;1788;49.400;11.092;2022-07-18T15:56:59;35.30;19.20
3548;DHT22;1788;49.400;11.092;2022-07-18T15:59:25;35.20;19.30
3548;DHT22;1788;49.400;11.092;2022-07-18T16:01:52;35.10;19.40
3548;DHT22;1788;49.400;11.092;2022-07-18T16:04:20;34.80;19.50
3548;DHT22;1788;49.400;11.092;2022-07-18T16:06:46;34.90;19.50
3548;DHT22;1788;49.400;11.092;2022-07-18T16:09:14;34.80;19.50
3548;DHT22;1788;49.400;11.092;2022-07-18T16:11:40;34.60;19.40
3548;DHT22;1788;49.400;11.092;2022-07-18T16:14:08;34.40;19.60
3548;DHT22;1788;49.400;11.092;2022-07-18T16:16:35;34.40;19.60
3548;DHT22;1788;49.400;11.092;2022-07-18T16:19:02;34.30;19.60
3548;DHT22;1788;49.400;11.092;2022-07-18T16:21:28;34.30;19.60
3548;DHT22;1788;49.400;11.092;2022-07-18T16:23:55;34.30;19.70
3548;DHT22;1788;49.400;11.092;2022-07-18T16:26:22;34.30;19.70
3548;DHT22;1788;49.400;11.092;2022-07-18T16:28:48;34.30;19.80
3548;DHT22;1788;49.400;11.092;2022-07-18T16:31:16;34.30;19.80
3548;DHT22;1788;49.400;11.092;2022-07-18T16:33:42;34.20;19.80
3548;DHT22;1788;49.400;11.092;2022-07-18T16:36:09;34.20;19.90
3548;DHT22;1788;49.400;11.092;2022-07-18T16:38:36;34.10;19.90
3548;DHT22;1788;49.400;11.092;2022-07-18T16:41:02;34.10;20.00
3548;DHT22;1788;49.400;11.092;2022-07-18T16:45:56;34.00;20.10
3548;DHT22;1788;49.400;11.092;2022-07-18T16:48:22;33.90;20.20
3548;DHT22;1788;49.400;11.092;2022-07-18T16:50:49;33.90;20.30
3548;DHT22;1788;49.400;11.092;2022-07-18T16:53:15;33.80;20.40
3548;DHT22;1788;49.400;11.092;2022-07-18T16:55:43;33.70;20.50
3548;DHT22;1788;49.400;11.092;2022-07-18T16:58:09;33.70;20.50
3548;DHT22;1788;49.400;11.092;2022-07-18T17:00:37;33.70;20.50
3548;DHT22;1788;49.400;11.092;2022-07-18T17:03:04;33.70;20.50
3548;DHT22;1788;49.400;11.092;2022-07-18T17:05:30;33.70;20.60
3548;DHT22;1788;49.400;11.092;2022-07-18T17:07:57;33.60;20.60
3548;DHT22;1788;49.400;11.092;2022-07-18T17:10:24;33.60;20.60
3548;DHT22;1788;49.400;11.092;2022-07-18T17:12:52;33.50;20.70
3548;DHT22;1788;49.400;11.092;2022-07-18T17:15:19;33.40;20.80
3548;DHT22;1788;49.400;11.092;2022-07-18T17:17:46;33.40;20.80
3548;DHT22;1788;49.400;11.092;2022-07-18T17:20:13;33.40;20.90
3548;DHT22;1788;49.400;11.092;2022-07-18T17:22:40;33.40;21.00
3548;DHT22;1788;49.400;11.092;2022-07-18T17:25:07;33.30;20.90
3548;DHT22;1788;49.400;11.092;2022-07-18T17:27:34;33.30;21.10